KMXF/MXF METAR and TAF weather

Enter ICAO airport designator
Station Type Date Time Source
KMXF METAR 2019/12/08 06:56 UTC NOAA

KMXF 080656Z AUTO 07005KT 10SM OVC055 14/06 A3020 RMK AO2 SLP229 T01360062


Station Type Date Time Source
KMXF Decoded METAR 2019/12/08 06:56 UTC NOAA

Maxwell Air Force Base / Montgomery, AL, United States (KMXF) 32-23N 086-22W
Dec 08, 2019 - 01:56 AM EST / 2019.12.08 0656 UTC
Wind: from the ENE (070 degrees) at 6 MPH (5 KT):0
Visibility: 10 mile(s):0
Sky conditions: overcast
Temperature: 56.5 F (13.6 C)
Dew Point: 43.2 F (6.2 C)
Relative Humidity: 60%
Pressure (altimeter): 30.2 in. Hg (1022 hPa)
ob: KMXF 080656Z AUTO 07005KT 10SM OVC055 14/06 A3020 RMK AO2 SLP229 T01360062
cycle: 7

Station Type Date Time Source
KMXF TAF 2019/12/07 20:07 UTC NOAA

TAF KMXF 072000Z 0720/0902 07006KT 9999 BKN030 QNH3017INS
BECMG 0801/0802 09006KT 9999 SCT020 BKN025 QNH3021INS
BECMG 0810/0811 10006KT 9999 FEW030 BKN050 QNH3022INS
BECMG 0815/0816 10010G15KT 9999 BKN025 OVC040 QNH3015INS
BECMG 0821/0822 10006KT 9999 SCT010 BKN020 QNH3011INS TX19/0721Z TN10/0810Z LAST NO
AMDS AFT 0800 NEXT 0812

Example: see airport list